Time;durP1;ratioP1;P1;durP2;ratioP2;P2;SDS_P1;SDS_P2;PMS_P1;PMS_P2;Temp;Humidity;BMP_temperature;BMP_pressure;BME280_temperature;BME280_humidity;BME280_pressure;Samples;Min_cycle;Max_cycle;Signal;HPM_P1;HPM_P2
2021/08/21 00:01:11;;;;;;;8.20;6.87;;;;;;;16.94;74.16;99106.55;2131168;84;20991;-81
2021/08/21 00:04:15;;;;;;;8.63;7.12;;;;;;;17.11;75.01;99109.02;2130766;84;20999;-81
2021/08/21 00:07:16;;;;;;;8.33;7.55;;;;;;;17.40;74.94;99103.02;2130934;84;21399;-82
2021/08/21 00:10:17;;;;;;;7.28;6.58;;;;;;;17.57;74.08;99100.63;2130758;84;21087;-81
2021/08/21 00:13:17;;;;;;;6.78;6.08;;;;;;;17.79;73.73;99108.28;2130702;84;20932;-81
2021/08/21 00:16:17;;;;;;;11.00;6.85;;;;;;;17.94;73.07;99109.84;2130784;84;20975;-81
2021/08/21 00:19:18;;;;;;;6.85;6.00;;;;;;;18.08;72.63;99109.20;2130557;84;20947;-81
2021/08/21 00:22:18;;;;;;;13.03;6.28;;;;;;;18.18;71.93;99111.27;2130007;84;21315;-81
2021/08/21 00:25:19;;;;;;;7.25;6.08;;;;;;;18.23;71.48;99117.39;2129871;84;21032;-81
2021/08/21 00:28:19;;;;;;;6.25;5.67;;;;;;;18.23;71.02;99116.07;2130779;84;20988;-81
2021/08/21 00:31:20;;;;;;;6.80;6.05;;;;;;;18.28;70.80;99112.91;2130363;84;21002;-81
2021/08/21 00:34:21;;;;;;;6.75;6.15;;;;;;;18.35;70.25;99112.38;2130852;84;20999;-81
2021/08/21 00:37:21;;;;;;;5.75;5.22;;;;;;;18.26;69.57;99115.16;2130530;81;20964;-81
2021/08/21 00:40:22;;;;;;;6.62;5.83;;;;;;;18.25;70.32;99119.56;2130672;84;20968;-81
2021/08/21 00:43:22;;;;;;;7.37;6.03;;;;;;;18.36;70.02;99116.31;2130630;84;20972;-81
2021/08/21 00:46:23;;;;;;;6.83;6.08;;;;;;;18.45;69.61;99120.59;2130066;84;21374;-81
2021/08/21 00:49:23;;;;;;;6.47;5.80;;;;;;;18.51;68.94;99118.30;2130133;84;20937;-81
2021/08/21 00:52:24;;;;;;;6.72;6.08;;;;;;;18.36;67.98;99117.63;2130224;84;21000;-81
2021/08/21 00:55:24;;;;;;;10.53;6.72;;;;;;;18.25;69.05;99119.56;2130354;84;21015;-80
2021/08/21 00:58:25;;;;;;;6.35;5.70;;;;;;;18.30;68.43;99123.02;2129199;84;21690;-80
2021/08/21 01:01:25;;;;;;;8.43;6.30;;;;;;;18.24;68.20;99122.23;2128967;84;20932;-80
2021/08/21 01:04:26;;;;;;;7.20;6.50;;;;;;;18.21;68.59;99120.50;2129570;84;20952;-81
2021/08/21 01:07:26;;;;;;;8.13;5.40;;;;;;;18.04;68.48;99113.23;2130287;84;20953;-81
2021/08/21 01:10:27;;;;;;;8.73;5.95;;;;;;;18.04;68.41;99122.48;2130213;84;20983;-81
2021/08/21 01:13:27;;;;;;;5.92;5.33;;;;;;;18.01;67.88;99119.44;2130367;84;20944;-81
2021/08/21 01:16:28;;;;;;;6.92;5.35;;;;;;;17.92;68.01;99117.36;2129750;84;20976;-81
2021/08/21 01:19:28;;;;;;;5.53;5.03;;;;;;;17.97;68.09;99115.53;2129438;84;20960;-80
2021/08/21 01:22:29;;;;;;;8.35;6.17;;;;;;;18.05;68.23;99114.98;2128761;84;20956;-80
2021/08/21 01:25:29;;;;;;;23.73;7.37;;;;;;;18.15;68.04;99117.92;2128923;84;20941;-81
2021/08/21 01:28:30;;;;;;;7.53;5.37;;;;;;;18.20;67.70;99113.89;2130149;84;20976;-81
2021/08/21 01:31:30;;;;;;;9.65;6.62;;;;;;;18.15;67.56;99116.59;2130027;84;21367;-82
2021/08/21 01:34:31;;;;;;;7.05;5.97;;;;;;;18.13;67.49;99111.78;2130096;84;20941;-81
2021/08/21 01:37:31;;;;;;;7.80;5.70;;;;;;;18.07;66.90;99103.95;2130051;83;20956;-81
2021/08/21 01:40:32;;;;;;;6.20;5.60;;;;;;;17.84;66.61;99106.91;2139224;83;21001;-80
2021/08/21 01:43:32;;;;;;;8.05;6.47;;;;;;;17.83;67.37;99109.12;2138815;83;20928;-80
2021/08/21 01:46:33;;;;;;;6.75;6.05;;;;;;;17.86;66.90;99106.88;2138605;83;21035;-80
2021/08/21 01:49:33;;;;;;;6.97;5.95;;;;;;;17.90;67.26;99107.27;2138960;83;20951;-80
2021/08/21 01:52:34;;;;;;;8.98;6.17;;;;;;;17.94;66.20;99111.61;2139370;83;21382;-81
2021/08/21 01:55:34;;;;;;;7.00;6.37;;;;;;;17.94;66.20;99111.61;2139327;83;20999;-80
2021/08/21 01:58:35;;;;;;;7.90;5.85;;;;;;;17.85;66.22;99117.02;2139244;83;21015;-80
2021/08/21 02:01:35;;;;;;;6.55;5.62;;;;;;;17.63;66.40;99114.62;2139156;83;20975;-80
2021/08/21 02:04:36;;;;;;;6.78;5.85;;;;;;;17.64;66.98;99112.85;2139107;83;20955;-80
2021/08/21 02:07:36;;;;;;;8.30;5.62;;;;;;;17.77;67.15;99115.35;2139096;83;21375;-80
2021/08/21 02:10:37;;;;;;;6.00;5.50;;;;;;;17.85;66.77;99107.33;2138874;83;20963;-80
2021/08/21 02:13:37;;;;;;;6.65;5.37;;;;;;;17.71;66.34;99106.19;2139322;83;20944;-79
2021/08/21 02:16:38;;;;;;;6.40;5.40;;;;;;;17.64;66.50;99108.89;2138596;83;21014;-80
2021/08/21 02:19:38;;;;;;;27.45;6.65;;;;;;;17.67;66.25;99108.44;2139189;83;20956;-80
2021/08/21 02:22:39;;;;;;;7.47;5.37;;;;;;;17.58;66.63;99111.61;2138467;83;21063;-80
2021/08/21 02:25:39;;;;;;;7.40;5.58;;;;;;;17.45;65.28;99114.84;2138371;83;20963;-80
2021/08/21 02:28:40;;;;;;;6.42;5.25;;;;;;;17.10;65.34;99112.55;2138784;83;20960;-80
2021/08/21 02:31:40;;;;;;;8.25;5.20;;;;;;;16.97;66.76;99109.60;2138800;83;21327;-80
2021/08/21 02:34:41;;;;;;;6.67;5.58;;;;;;;17.12;67.05;99115.59;2139125;83;20944;-81
2021/08/21 02:37:41;;;;;;;8.87;5.57;;;;;;;17.25;66.69;99110.20;2139043;82;20928;-80
2021/08/21 02:40:42;;;;;;;6.53;5.37;;;;;;;17.23;66.22;99106.70;2129193;84;20995;-80
2021/08/21 02:43:43;;;;;;;7.03;5.17;;;;;;;17.07;66.15;99104.66;2129203;84;20999;-80
2021/08/21 02:46:43;;;;;;;6.42;5.10;;;;;;;17.06;66.28;99109.52;2128767;84;21386;-80
2021/08/21 02:49:44;;;;;;;6.03;5.35;;;;;;;17.08;66.37;99115.20;2128824;84;21627;-80
2021/08/21 02:52:44;;;;;;;9.80;5.35;;;;;;;17.09;66.42;99105.08;2128251;84;21140;-80
2021/08/21 02:55:45;;;;;;;7.80;5.95;;;;;;;17.07;65.89;99112.14;2129131;84;20979;-80
2021/08/21 02:58:45;;;;;;;7.08;4.95;;;;;;;16.94;65.90;99115.78;2129077;84;20960;-81
2021/08/21 03:01:46;;;;;;;7.87;5.20;;;;;;;16.88;65.53;99118.47;2128726;84;20984;-80
2021/08/21 03:04:46;;;;;;;9.23;5.60;;;;;;;16.60;65.53;99119.13;2129053;84;21320;-80
2021/08/21 03:07:47;;;;;;;7.35;4.83;;;;;;;16.39;66.24;99120.12;2128971;84;20971;-80
2021/08/21 03:10:47;;;;;;;5.65;5.10;;;;;;;16.58;67.27;99116.06;2129188;84;21014;-80
2021/08/21 03:13:48;;;;;;;9.43;5.70;;;;;;;16.80;66.56;99120.30;2128904;84;20964;-81
2021/08/21 03:16:48;;;;;;;8.48;5.45;;;;;;;16.72;66.29;99118.18;2128996;84;21043;-80
2021/08/21 03:19:49;;;;;;;8.25;5.28;;;;;;;16.63;65.75;99119.55;2129100;84;20976;-80
2021/08/21 03:22:50;;;;;;;7.35;4.65;;;;;;;16.72;66.26;99121.69;2129170;84;21307;-80
2021/08/21 03:25:50;;;;;;;9.00;5.17;;;;;;;16.82;66.60;99123.80;2128968;84;21383;-80
2021/08/21 03:28:50;;;;;;;7.87;5.37;;;;;;;16.71;64.75;99126.98;2129641;84;20966;-80
2021/08/21 03:31:51;;;;;;;7.10;4.83;;;;;;;16.54;66.15;99125.76;2129710;84;20975;-80
2021/08/21 03:34:52;;;;;;;7.87;5.65;;;;;;;16.70;65.88;99134.45;2128319;84;20968;-80
2021/08/21 03:37:52;;;;;;;12.90;6.15;;;;;;;16.85;65.89;99131.69;2128553;84;20989;-80
2021/08/21 03:40:53;;;;;;;9.65;5.12;;;;;;;16.97;64.09;99135.53;2138029;83;20999;-80
2021/08/21 03:43:56;;;;;;;9.80;5.87;;;;;;;16.82;63.67;99132.59;2138764;83;21007;-80
2021/08/21 03:46:56;;;;;;;8.93;5.77;;;;;;;16.81;63.62;99135.23;2139195;83;21027;-80
2021/08/21 03:49:57;;;;;;;7.12;4.85;;;;;;;16.87;63.62;99132.09;2137798;83;20916;-79
2021/08/21 03:52:57;;;;;;;7.70;4.87;;;;;;;16.87;62.85;99137.81;2137595;83;20983;-80
2021/08/21 03:55:58;;;;;;;10.20;5.83;;;;;;;16.86;63.04;99139.58;2137717;83;21022;-80
2021/08/21 03:58:58;;;;;;;11.12;6.28;;;;;;;16.77;62.99;99141.42;2138285;83;21450;-81
2021/08/21 04:01:59;;;;;;;9.48;6.15;;;;;;;16.79;63.03;99146.23;2138337;83;20999;-80
2021/08/21 04:05:00;;;;;;;14.90;7.05;;;;;;;16.73;63.39;99158.15;2138232;83;20951;-81
2021/08/21 04:08:00;;;;;;;46.80;11.08;;;;;;;16.90;63.53;99151.42;2138175;83;20966;-80
2021/08/21 04:11:01;;;;;;;42.40;9.53;;;;;;;16.98;63.35;99154.42;2182617;81;21029;-80
2021/08/21 04:14:01;;;;;;;50.08;9.80;;;;;;;16.90;62.16;99152.30;2183465;81;20975;-80
2021/08/21 04:17:01;;;;;;;24.43;7.97;;;;;;;16.75;62.55;99153.74;2183491;81;20999;-80
2021/08/21 04:20:04;;;;;;;24.05;8.30;;;;;;;16.65;62.18;99158.62;2183359;82;21024;-80
2021/08/21 04:23:04;;;;;;;24.87;8.15;;;;;;;16.39;62.47;99154.81;2138223;83;20944;-80
2021/08/21 04:26:05;;;;;;;226.80;24.00;;;;;;;16.46;63.69;99167.06;2138065;83;20972;-79
2021/08/21 04:29:05;;;;;;;22.25;8.00;;;;;;;16.51;63.29;99174.09;2183112;82;20949;-79
2021/08/21 04:32:06;;;;;;;49.27;9.15;;;;;;;16.61;63.59;99173.58;2183288;82;20995;-79
2021/08/21 04:35:09;;;;;;;18.70;7.67;;;;;;;16.74;63.35;99175.72;2182756;82;21007;-79
2021/08/21 04:38:10;;;;;;;19.60;7.92;;;;;;;16.82;63.67;99169.94;2182244;82;21055;-78
2021/08/21 04:41:10;;;;;;;16.87;7.17;;;;;;;17.26;63.73;99175.26;2188615;81;20983;-78
2021/08/21 04:44:11;;;;;;;30.50;7.75;;;;;;;17.43;61.78;99176.87;2188757;81;20948;-78
2021/08/21 04:47:11;;;;;;;540.65;49.67;;;;;;;17.39;62.50;99172.96;2188477;81;21003;-77
2021/08/21 04:50:12;;;;;;;18.35;7.05;;;;;;;17.41;61.84;99179.09;2188520;81;21035;-78
2021/08/21 04:53:13;;;;;;;32.00;9.23;;;;;;;17.59;62.77;99181.53;2188676;81;20940;-79
2021/08/21 04:56:13;;;;;;;11.95;6.35;;;;;;;17.87;62.43;99179.93;2188503;81;20976;-79
2021/08/21 04:59:14;;;;;;;12.43;6.78;;;;;;;17.99;61.73;99184.61;2188443;81;20980;-78
2021/08/21 05:02:14;;;;;;;9.90;7.05;;;;;;;18.23;62.28;99188.73;2188851;81;20988;-79
2021/08/21 05:05:15;;;;;;;17.60;7.97;;;;;;;18.50;60.92;99186.15;2188761;81;21647;-79
2021/08/21 05:08:16;;;;;;;14.83;7.45;;;;;;;18.38;61.61;99189.84;2189015;81;20947;-80
2021/08/21 05:11:16;;;;;;;12.90;8.50;;;;;;;18.52;62.19;99185.68;2189147;81;21031;-79
2021/08/21 05:14:17;;;;;;;14.35;8.18;;;;;;;18.61;61.00;99189.54;2189258;81;21002;-79
2021/08/21 05:17:17;;;;;;;12.75;8.58;;;;;;;18.63;61.89;99193.48;2189487;81;21004;-79
2021/08/21 05:20:25;;;;;;;64.58;13.78;;;;;;;18.67;61.82;99193.86;2189199;81;20987;-81
2021/08/21 05:23:20;;;;;;;19.15;10.08;;;;;;;18.66;62.62;99197.41;2189492;81;21052;-78
2021/08/21 05:26:21;;;;;;;23.92;11.97;;;;;;;18.84;62.79;99206.38;2189744;81;20968;-78
2021/08/21 05:29:22;;;;;;;31.55;17.92;;;;;;;18.72;61.66;99205.24;2189040;81;21008;-78
2021/08/21 05:32:22;;;;;;;39.30;24.85;;;;;;;18.76;63.04;99210.45;2188950;81;21591;-79
2021/08/21 05:35:23;;;;;;;45.52;26.65;;;;;;;18.70;63.26;99209.68;2189716;81;21031;-79
2021/08/21 05:38:23;;;;;;;73.87;34.50;;;;;;;18.35;64.88;99214.99;2189875;81;20913;-79
2021/08/21 05:41:24;;;;;;;103.47;39.00;;;;;;;18.61;65.60;99224.33;2189549;81;21081;-80
2021/08/21 05:44:25;;;;;;;333.55;118.08;;;;;;;18.57;65.76;99226.59;2189922;81;20964;-80
2021/08/21 05:47:25;;;;;;;15.18;12.63;;;;;;;18.91;66.11;99221.70;2189800;81;20984;-81
2021/08/21 05:50:25;;;;;;;294.45;98.60;;;;;;;19.35;64.53;99224.95;2189418;81;20995;-82
2021/08/21 05:53:26;;;;;;;31.93;16.90;;;;;;;19.43;64.86;99225.70;2190268;81;20921;-81
2021/08/21 05:56:26;;;;;;;26.70;15.23;;;;;;;20.02;64.33;99230.38;2190556;81;20971;-81
2021/08/21 05:59:31;;;;;;;13.28;11.25;;;;;;;20.20;62.83;99230.45;2190577;81;20971;-80
2021/08/21 06:02:32;;;;;;;35.45;18.95;;;;;;;19.96;62.38;99234.47;2190595;81;21024;-80
2021/08/21 06:05:32;;;;;;;14.95;13.28;;;;;;;19.61;63.73;99239.96;2190512;81;20955;-80
2021/08/21 06:08:36;;;;;;;11.73;10.63;;;;;;;19.73;63.63;99242.38;2190346;81;21075;-80
2021/08/21 06:11:37;;;;;;;19.87;12.63;;;;;;;19.29;63.84;99247.56;2190250;81;21075;-80
2021/08/21 06:14:38;;;;;;;17.45;14.80;;;;;;;18.96;65.11;99246.30;2190355;81;21003;-80
2021/08/21 06:17:39;;;;;;;14.87;11.28;;;;;;;18.82;66.08;99243.88;2190422;81;20975;-80
2021/08/21 06:20:39;;;;;;;12.93;11.18;;;;;;;18.94;65.64;99244.13;2189980;81;21007;-81
2021/08/21 06:23:40;;;;;;;13.43;12.03;;;;;;;18.88;66.30;99248.19;2189307;81;21004;-80
2021/08/21 06:26:40;;;;;;;15.60;12.30;;;;;;;18.66;66.78;99250.28;2189621;81;20967;-80
2021/08/21 06:29:41;;;;;;;12.98;11.68;;;;;;;18.52;67.30;99252.21;2190157;81;21008;-80
2021/08/21 06:32:41;;;;;;;14.65;11.90;;;;;;;18.60;67.61;99250.34;2190027;81;20988;-80
2021/08/21 06:35:42;;;;;;;13.85;12.43;;;;;;;18.65;68.10;99251.18;2190221;81;21030;-80
2021/08/21 06:38:42;;;;;;;13.75;12.03;;;;;;;18.67;68.10;99253.35;2190185;81;21022;-82
2021/08/21 06:41:43;;;;;;;12.37;11.28;;;;;;;18.78;68.23;99260.23;2190297;81;21086;-83
2021/08/21 06:44:43;;;;;;;13.35;11.35;;;;;;;18.93;67.82;99261.77;2190157;81;21003;-83
2021/08/21 06:47:44;;;;;;;13.80;12.37;;;;;;;19.02;67.97;99262.95;2190593;81;21012;-81
2021/08/21 06:50:46;;;;;;;14.80;13.28;;;;;;;18.99;67.65;99262.13;2190325;81;21328;-77
2021/08/21 06:53:47;;;;;;;77.95;39.35;;;;;;;19.07;67.40;99263.80;2189997;81;20936;-80
2021/08/21 06:56:47;;;;;;;17.98;13.18;;;;;;;19.17;67.67;99262.32;2189827;81;21006;-79
2021/08/21 06:59:48;;;;;;;14.90;12.25;;;;;;;19.54;66.78;99255.53;2190295;81;20995;-80
2021/08/21 07:02:48;;;;;;;673.60;265.45;;;;;;;19.85;66.42;99262.47;2190019;81;20980;-78
2021/08/21 07:05:49;;;;;;;37.13;17.75;;;;;;;19.97;66.33;99258.73;2189868;81;20960;-80
2021/08/21 07:08:49;;;;;;;13.93;11.80;;;;;;;20.68;65.21;99261.69;2190192;81;20987;-82
2021/08/21 07:11:50;;;;;;;13.13;11.97;;;;;;;20.89;64.15;99255.05;2189711;81;21058;-80
2021/08/21 07:14:50;;;;;;;30.70;15.72;;;;;;;20.81;63.14;99259.21;2190459;81;21000;-80
2021/08/21 07:17:54;;;;;;;54.05;22.00;;;;;;;20.86;63.55;99256.45;2190260;81;21035;-80
2021/08/21 07:20:55;;;;;;;;;;;;;;;21.18;62.77;99252.58;2192669;81;21324;-79
2021/08/21 07:23:55;;;;;;;12.13;11.03;;;;;;;21.13;61.20;99262.44;2190169;81;20148;-79
2021/08/21 07:26:56;;;;;;;11.85;10.75;;;;;;;20.78;62.00;99260.58;2190026;81;20987;-81
2021/08/21 07:29:56;;;;;;;11.83;10.70;;;;;;;21.02;61.64;99262.27;2190387;81;20988;-80
2021/08/21 07:32:57;;;;;;;11.10;9.88;;;;;;;21.05;60.64;99256.89;2190321;81;20998;-80
2021/08/21 07:35:57;;;;;;;11.68;10.55;;;;;;;21.14;59.60;99253.56;2190819;81;20995;-80
2021/08/21 07:38:58;;;;;;;12.58;10.53;;;;;;;21.01;59.11;99264.05;2191281;81;20995;-81
2021/08/21 07:41:58;;;;;;;10.10;9.10;;;;;;;20.90;59.43;99263.44;2191439;81;21022;-80
2021/08/21 07:44:59;;;;;;;10.58;9.58;;;;;;;20.89;59.01;99265.67;2191520;81;20963;-80
2021/08/21 07:47:59;;;;;;;9.75;8.85;;;;;;;20.90;57.38;99273.59;2191581;81;21264;-83
2021/08/21 07:51:00;;;;;;;12.88;8.35;;;;;;;21.06;58.18;99274.56;2190741;81;21359;-79
2021/08/21 07:54:00;;;;;;;9.13;7.92;;;;;;;21.21;57.60;99276.39;2191218;81;20979;-82
2021/08/21 07:57:00;;;;;;;10.25;9.20;;;;;;;21.29;57.80;99266.95;2191016;81;21024;-80
2021/08/21 08:00:01;;;;;;;9.70;8.88;;;;;;;21.75;55.97;99273.77;2191434;81;21000;-80
2021/08/21 08:03:02;;;;;;;9.30;8.23;;;;;;;21.81;54.71;99270.95;2190160;81;20944;-80
2021/08/21 08:06:02;;;;;;;8.63;7.72;;;;;;;22.35;55.07;99271.67;2190085;81;21012;-82
2021/08/21 08:09:03;;;;;;;8.68;7.67;;;;;;;22.64;52.88;99269.06;2190190;81;21357;-80
2021/08/21 08:12:03;;;;;;;9.15;7.90;;;;;;;22.56;51.83;99271.08;2190487;81;21533;-81
2021/08/21 08:15:04;;;;;;;7.30;6.47;;;;;;;22.56;52.11;99275.06;2190828;81;20976;-81
2021/08/21 08:18:05;;;;;;;9.13;7.60;;;;;;;22.61;51.64;99280.25;2191101;81;20971;-80
2021/08/21 08:21:05;;;;;;;7.72;7.03;;;;;;;22.16;51.92;99292.61;2190832;81;20991;-80
2021/08/21 08:24:06;;;;;;;81.67;33.98;;;;;;;21.85;53.09;99286.77;2191194;81;20983;-81
2021/08/21 08:27:07;;;;;;;15.75;7.15;;;;;;;22.09;52.24;99280.40;2191091;81;20976;-80
2021/08/21 08:30:08;;;;;;;7.92;7.10;;;;;;;22.49;51.07;99281.45;2190635;81;20999;-80
2021/08/21 08:33:08;;;;;;;7.03;6.35;;;;;;;22.61;50.78;99289.11;2190658;81;20959;-80
2021/08/21 08:36:09;;;;;;;9.88;6.10;;;;;;;22.54;50.46;99284.42;2190591;81;21434;-81
2021/08/21 08:39:10;;;;;;;7.33;6.12;;;;;;;23.08;50.29;99290.80;2190508;81;21351;-80
2021/08/21 08:42:10;;;;;;;6.65;5.90;;;;;;;23.54;48.05;99290.20;2173064;81;21103;-81
2021/08/21 08:45:11;;;;;;;10.72;6.95;;;;;;;23.48;48.90;99287.27;2173997;82;20956;-80
2021/08/21 08:48:11;;;;;;;8.80;6.12;;;;;;;22.81;50.24;99292.07;2174217;82;21027;-80
2021/08/21 08:51:12;;;;;;;8.93;6.08;;;;;;;22.27;51.61;99288.31;2174197;82;20941;-81
2021/08/21 08:54:12;;;;;;;6.40;5.80;;;;;;;21.99;52.18;99290.38;2174375;81;21078;-81
2021/08/21 08:57:13;;;;;;;8.05;5.72;;;;;;;21.63;52.34;99289.53;2174754;81;21008;-80
2021/08/21 09:00:13;;;;;;;6.30;5.80;;;;;;;21.85;51.75;99290.75;2174599;81;20977;-80
2021/08/21 09:03:14;;;;;;;13.38;12.00;;;;;;;22.53;50.98;99294.63;2174535;81;20976;-81
2021/08/21 09:06:14;;;;;;;10.05;5.50;;;;;;;22.85;51.05;99288.39;2174514;81;20953;-81
2021/08/21 09:09:15;;;;;;;6.28;5.70;;;;;;;23.13;47.47;99292.85;2174137;81;20941;-81
2021/08/21 09:12:15;;;;;;;9.55;5.92;;;;;;;23.42;47.07;99306.59;2173894;81;21008;-80
2021/08/21 09:15:16;;;;;;;5.90;5.30;;;;;;;23.69;47.91;99295.03;2173115;81;20996;-80
2021/08/21 09:18:16;;;;;;;8.48;4.87;;;;;;;24.22;45.19;99298.06;2174137;81;20989;-79
2021/08/21 09:21:17;;;;;;;7.50;5.80;;;;;;;24.39;44.73;99297.92;2173946;82;21435;-82
2021/08/21 09:24:17;;;;;;;7.28;4.78;;;;;;;24.04;46.13;99300.47;2174328;81;20945;-82
2021/08/21 09:27:18;;;;;;;5.92;5.35;;;;;;;24.01;46.09;99297.91;2173551;81;21025;-79
2021/08/21 09:30:18;;;;;;;11.15;5.75;;;;;;;23.39;46.34;99299.53;2173747;82;20974;-79
2021/08/21 09:33:19;;;;;;;6.03;5.42;;;;;;;22.88;46.98;99305.59;2173655;81;20955;-80
2021/08/21 09:36:22;;;;;;;4.83;4.35;;;;;;;22.91;46.88;99307.30;2173865;82;21007;-83
2021/08/21 09:39:23;;;;;;;5.00;4.25;;;;;;;22.80;46.55;99306.30;2174258;81;21340;-83
2021/08/21 09:42:23;;;;;;;5.67;4.80;;;;;;;23.27;47.56;99299.94;2173479;81;21448;-80
2021/08/21 09:45:24;;;;;;;5.35;4.45;;;;;;;23.97;46.47;99297.61;2173918;82;20988;-80
2021/08/21 09:48:25;;;;;;;6.35;4.75;;;;;;;24.46;43.53;99305.23;2173224;81;21109;-80
2021/08/21 09:51:25;;;;;;;6.60;4.62;;;;;;;23.57;44.91;99309.23;2172983;82;20976;-81
2021/08/21 09:54:26;;;;;;;4.72;4.28;;;;;;;23.25;46.16;99306.23;2173788;81;21012;-81
2021/08/21 09:57:26;;;;;;;4.28;3.92;;;;;;;23.44;46.39;99312.27;2173579;81;21457;-80
2021/08/21 10:00:27;;;;;;;18.17;8.95;;;;;;;23.91;45.32;99304.95;2172795;81;21296;-79
2021/08/21 10:03:27;;;;;;;4.62;4.12;;;;;;;24.21;44.47;99299.86;2173152;82;20964;-82
2021/08/21 10:06:28;;;;;;;6.10;4.37;;;;;;;24.63;43.74;99293.45;2173407;82;20940;-81
2021/08/21 10:09:29;;;;;;;4.53;4.12;;;;;;;25.01;42.65;99290.66;2172557;82;20972;-81
2021/08/21 10:12:30;;;;;;;6.75;4.60;;;;;;;24.86;43.08;99295.70;2173487;81;21098;-81
2021/08/21 10:15:30;;;;;;;3.80;3.50;;;;;;;25.03;43.57;99290.13;2173204;82;21432;-81
2021/08/21 10:18:31;;;;;;;5.92;3.75;;;;;;;24.67;41.89;99297.75;2173258;81;20976;-80
2021/08/21 10:21:31;;;;;;;4.05;3.65;;;;;;;23.79;44.10;99299.59;2173402;82;20917;-80
2021/08/21 10:24:34;;;;;;;4.58;4.15;;;;;;;23.32;45.11;99303.78;2173508;81;21293;-79
2021/08/21 10:27:37;;;;;;;5.97;4.28;;;;;;;23.11;45.85;99302.68;2129779;84;21043;-80
2021/08/21 10:30:37;;;;;;;3.85;3.55;;;;;;;23.00;46.28;99300.81;2129963;84;21060;-81
2021/08/21 10:33:38;;;;;;;5.75;3.33;;;;;;;23.55;45.17;99303.09;2129220;84;21399;-81
2021/08/21 10:36:38;;;;;;;6.92;3.10;;;;;;;24.17;43.00;99299.56;2129815;84;21062;-80
2021/08/21 10:39:40;;;;;;;3.70;3.40;;;;;;;24.37;41.13;99298.91;2129894;84;21443;-81
2021/08/21 10:42:40;;;;;;;4.60;4.10;;;;;;;24.61;41.84;99295.31;2129073;83;21439;-81
2021/08/21 10:45:46;;;;;;;4.17;3.50;;;;;;;24.70;41.27;99288.29;2129294;84;20976;-81
2021/08/21 10:48:47;;;;;;;4.58;3.60;;;;;;;24.55;41.88;99287.55;2128548;84;21070;-79
2021/08/21 10:51:47;;;;;;;4.50;3.70;;;;;;;24.52;43.19;99290.33;2128379;84;20948;-82
2021/08/21 10:54:48;;;;;;;5.08;3.77;;;;;;;24.42;43.08;99299.61;2128972;84;20948;-82
2021/08/21 10:57:48;;;;;;;3.62;3.33;;;;;;;24.53;42.76;99292.53;2129502;84;21060;-80
2021/08/21 11:00:49;;;;;;;3.83;3.33;;;;;;;24.52;41.74;99290.79;2129156;84;21427;-81
2021/08/21 11:03:49;;;;;;;4.37;3.98;;;;;;;24.45;41.42;99285.69;2129531;84;21005;-80
2021/08/21 11:06:53;;;;;;;3.95;3.50;;;;;;;24.40;41.31;99285.45;2130003;84;21000;-81
2021/08/21 11:09:53;;;;;;;3.83;3.33;;;;;;;24.18;42.62;99291.10;2129741;84;21032;-80
2021/08/21 11:12:55;;;;;;;3.95;3.60;;;;;;;23.82;42.30;99287.02;2129557;84;21055;-81
2021/08/21 11:15:59;;;;;;;5.00;3.67;;;;;;;23.59;43.32;99286.08;2130265;84;21035;-82
2021/08/21 11:18:58;;;;;;;4.40;3.40;;;;;;;23.46;44.16;99286.92;2174709;81;20974;-80
2021/08/21 11:21:58;;;;;;;3.83;3.52;;;;;;;23.48;44.22;99285.07;2174805;81;20993;-81
2021/08/21 11:25:00;;;;;;;4.08;3.40;;;;;;;23.90;43.97;99278.76;2174872;81;20937;-80
2021/08/21 11:28:01;;;;;;;6.10;3.60;;;;;;;24.08;43.47;99282.09;2174290;82;21032;-79
2021/08/21 11:31:01;;;;;;;3.30;3.10;;;;;;;23.87;42.97;99280.20;2174757;81;20964;-82
2021/08/21 11:34:01;;;;;;;646.92;296.63;;;;;;;23.87;43.33;99281.53;2174645;81;20977;-79
2021/08/21 11:37:02;;;;;;;63.60;24.27;;;;;;;24.43;43.05;99292.00;2174867;81;21421;-79
2021/08/21 11:40:03;;;;;;;3.60;3.30;;;;;;;24.89;42.26;99276.89;2175494;81;20920;-80
2021/08/21 11:43:03;;;;;;;3.72;3.42;;;;;;;25.43;40.59;99274.31;2190892;81;21031;-81
2021/08/21 11:46:04;;;;;;;8.03;5.03;;;;;;;25.78;40.17;99275.52;2191360;81;21005;-80
2021/08/21 11:49:04;;;;;;;3.70;3.42;;;;;;;25.73;40.11;99275.72;2191352;81;21207;-80
2021/08/21 11:52:05;;;;;;;3.98;3.60;;;;;;;25.76;39.87;99280.06;2191001;81;20979;-82
2021/08/21 11:55:05;;;;;;;3.65;3.35;;;;;;;25.73;39.72;99278.86;2191044;81;20999;-80
2021/08/21 11:58:06;;;;;;;3.58;3.27;;;;;;;25.56;39.50;99275.54;2190953;81;20984;-80
2021/08/21 12:01:11;;;;;;;3.08;2.87;;;;;;;25.59;39.67;99272.73;2191823;81;20980;-80
2021/08/21 12:07:14;;;;;;;3.47;3.17;;;;;;;25.82;38.56;99272.65;2130153;83;21390;-81
2021/08/21 12:10:14;;;;;;;3.65;3.10;;;;;;;25.58;38.73;99269.66;2145546;83;20952;-81
2021/08/21 12:13:15;;;;;;;3.10;2.90;;;;;;;25.44;38.90;99265.36;2145949;83;20999;-80
2021/08/21 12:16:15;;;;;;;4.45;3.00;;;;;;;25.53;39.03;99261.84;2146292;83;21014;-80
2021/08/21 12:19:16;;;;;;;18.07;3.40;;;;;;;25.61;40.08;99265.05;2145391;83;20971;-80
2021/08/21 12:22:17;;;;;;;3.72;2.83;;;;;;;25.73;39.76;99261.02;2146091;83;21014;-81
2021/08/21 12:25:17;;;;;;;4.40;2.72;;;;;;;25.69;39.04;99261.61;2145863;83;20999;-80
2021/08/21 12:28:18;;;;;;;3.67;2.95;;;;;;;25.59;40.79;99265.59;2145300;83;21026;-81
2021/08/21 12:31:19;;;;;;;5.53;3.20;;;;;;;25.32;40.88;99265.41;2146259;83;20967;-80
2021/08/21 12:34:19;;;;;;;4.12;3.08;;;;;;;25.01;41.52;99267.96;2145314;83;21343;-81
2021/08/21 12:37:21;;;;;;;4.05;3.02;;;;;;;24.77;42.42;99267.10;2142838;83;21107;-79
2021/08/21 12:40:21;;;;;;;4.08;3.12;;;;;;;24.59;41.89;99269.61;2145781;80;20979;-80
2021/08/21 12:43:22;;;;;;;3.72;2.83;;;;;;;24.38;42.13;99259.29;2129704;84;20980;-81
2021/08/21 12:46:22;;;;;;;3.00;2.80;;;;;;;24.50;41.95;99260.16;2129892;84;21004;-80
2021/08/21 12:49:23;;;;;;;4.58;3.62;;;;;;;24.64;41.44;99267.17;2129834;84;21304;-80
2021/08/21 12:52:26;;;;;;;3.40;3.10;;;;;;;24.10;42.57;99268.71;2129665;84;20980;-80
2021/08/21 12:55:27;;;;;;;3.20;2.92;;;;;;;23.86;43.92;99267.80;2129520;84;21007;-80
2021/08/21 12:58:27;;;;;;;3.40;3.20;;;;;;;23.74;44.03;99266.89;2129320;84;21407;-81
2021/08/21 13:01:27;;;;;;;3.52;3.22;;;;;;;23.67;43.98;99267.56;2129841;84;20961;-82
2021/08/21 13:04:28;;;;;;;3.95;2.87;;;;;;;23.70;44.71;99262.59;2129998;84;20999;-80
2021/08/21 13:07:29;;;;;;;4.25;3.15;;;;;;;23.68;44.69;99263.98;2129542;84;20975;-82
2021/08/21 13:10:31;;;;;;;5.17;2.92;;;;;;;23.66;44.20;99259.63;2129811;84;20920;-81
2021/08/21 13:13:31;;;;;;;3.50;3.20;;;;;;;23.73;44.50;99262.48;2174298;81;21003;-79
2021/08/21 13:16:32;;;;;;;3.42;2.98;;;;;;;23.78;44.05;99261.40;2173925;82;21024;-80
2021/08/21 13:19:32;;;;;;;3.62;2.90;;;;;;;23.92;43.72;99250.70;2174249;81;20980;-82
2021/08/21 13:22:33;;;;;;;2.95;2.75;;;;;;;24.18;42.46;99256.43;2173997;82;20972;-80
2021/08/21 13:25:33;;;;;;;3.72;2.75;;;;;;;24.25;42.48;99249.94;2174716;81;20984;-81
2021/08/21 13:28:34;;;;;;;3.17;2.87;;;;;;;24.43;42.11;99244.84;2173949;81;20925;-81
2021/08/21 13:31:35;;;;;;;2.90;2.70;;;;;;;24.57;41.94;99245.66;2173924;81;20984;-81
2021/08/21 13:34:35;;;;;;;2.95;2.60;;;;;;;24.52;40.59;99247.63;2174066;81;21391;-80
2021/08/21 13:37:36;;;;;;;4.85;2.90;;;;;;;24.55;41.22;99244.84;2174116;82;21388;-82
2021/08/21 13:40:36;;;;;;;4.33;2.77;;;;;;;24.71;40.95;99240.64;2174973;80;20968;-81
2021/08/21 13:46:39;;;;;;;2.98;2.77;;;;;;;24.88;41.00;99243.11;2175178;81;20944;-81
2021/08/21 13:49:40;;;;;;;3.55;3.25;;;;;;;24.64;41.22;99241.81;2190358;81;21004;-81
2021/08/21 13:52:40;;;;;;;3.58;3.20;;;;;;;24.38;41.66;99234.81;2191057;81;20975;-81
2021/08/21 13:55:41;;;;;;;3.62;3.33;;;;;;;24.23;42.52;99243.79;2191008;81;21379;-82
2021/08/21 13:58:42;;;;;;;3.87;3.47;;;;;;;23.98;42.54;99246.02;2191228;81;21008;-81
2021/08/21 14:01:42;;;;;;;4.00;3.35;;;;;;;23.80;42.97;99236.89;2190878;81;21000;-80
2021/08/21 14:04:43;;;;;;;6.97;3.87;;;;;;;23.61;43.23;99241.59;2190697;81;20992;-81
2021/08/21 14:07:43;;;;;;;3.30;3.00;;;;;;;23.43;44.34;99246.59;2190689;81;20968;-80
2021/08/21 14:10:44;;;;;;;3.00;2.80;;;;;;;23.38;44.71;99243.64;2190975;81;20976;-81